createdAt,value
2019-05-20T00:01:13.861Z,96712.56
2019-05-20T00:03:42.199Z,96720.41
2019-05-20T00:06:10.591Z,96710.51
2019-05-20T00:08:39.102Z,96707.72
2019-05-20T00:11:07.599Z,96705.82
2019-05-20T00:13:35.959Z,96697.33
2019-05-20T00:16:04.351Z,96705.64
2019-05-20T00:18:32.654Z,96707.16
2019-05-20T00:21:00.973Z,96712.92
2019-05-20T00:23:29.271Z,96708.68
2019-05-20T00:25:57.597Z,96710.69
2019-05-20T00:28:25.896Z,96709.98
2019-05-20T00:30:54.705Z,96708.12
2019-05-20T00:33:22.991Z,96701.30
2019-05-20T00:35:51.307Z,96713.06
2019-05-20T00:38:19.623Z,96708.97
2019-05-20T00:40:48.191Z,96708.22
2019-05-20T00:43:16.507Z,96701.69
2019-05-20T00:45:45.148Z,96702.41
2019-05-20T00:48:13.465Z,96703.84
2019-05-20T00:50:42.112Z,96699.59
2019-05-20T00:53:10.448Z,96698.38
2019-05-20T00:55:39.521Z,96688.52
2019-05-20T00:58:07.888Z,96688.52
2019-05-20T01:00:37.087Z,96689.62
2019-05-20T01:03:05.373Z,96680.47
2019-05-20T01:05:33.696Z,96673.34
2019-05-20T01:08:02.112Z,96682.76
2019-05-20T01:10:30.438Z,96682.31
2019-05-20T01:12:58.765Z,96676.58
2019-05-20T01:15:27.242Z,96677.74
2019-05-20T01:17:55.956Z,96680.63
2019-05-20T01:20:24.922Z,96684.64
2019-05-20T01:22:53.293Z,96639.35
2019-05-20T01:25:21.589Z,96693.73
2019-05-20T01:27:50.423Z,96695.30
2019-05-20T01:30:20.146Z,96697.40
2019-05-20T01:32:48.480Z,96698.53
2019-05-20T01:35:17.284Z,96695.66
2019-05-20T01:37:45.623Z,96696.73
2019-05-20T01:40:14.157Z,96696.73
2019-05-20T01:42:42.547Z,96687.56
2019-05-20T01:45:11.986Z,96688.84
2019-05-20T01:47:40.377Z,96691.70
2019-05-20T01:50:09.026Z,96692.50
2019-05-20T01:52:37.355Z,96687.91
2019-05-20T01:55:09.047Z,96691.84
2019-05-20T01:57:37.398Z,96692.22
2019-05-20T02:00:08.084Z,96688.14
2019-05-20T02:02:36.460Z,96690.41
2019-05-20T02:05:06.995Z,96683.64
2019-05-20T02:07:35.366Z,96683.45
2019-05-20T02:10:05.808Z,96681.20
2019-05-20T02:12:34.092Z,96676.67
2019-05-20T02:15:22.364Z,96677.49
2019-05-20T02:17:51.019Z,96668.38
2019-05-20T02:20:19.483Z,96663.77
2019-05-20T02:22:47.794Z,96667.86
2019-05-20T02:25:16.298Z,96676.77
2019-05-20T02:27:44.660Z,96671.73
2019-05-20T02:30:13.453Z,96680.64
2019-05-20T02:32:41.774Z,96685.33
2019-05-20T02:35:10.911Z,96678.98
2019-05-20T02:37:39.264Z,96685.23
2019-05-20T02:40:08.319Z,96680.94
2019-05-20T02:42:36.676Z,96676.46
2019-05-20T02:45:08.635Z,96679.80
2019-05-20T02:47:36.928Z,96679.27
2019-05-20T02:50:06.259Z,96679.67
2019-05-20T02:52:35.727Z,96679.63
2019-05-20T02:55:06.316Z,96671.59
2019-05-20T02:57:34.687Z,96672.09
2019-05-20T03:00:04.038Z,96668.77
2019-05-20T03:02:32.353Z,96668.58
2019-05-20T03:05:01.075Z,96663.75
2019-05-20T03:07:29.394Z,96660.38
2019-05-20T03:09:57.686Z,96666.20
2019-05-20T03:12:26.012Z,96660.09
2019-05-20T03:14:54.300Z,96652.78
2019-05-20T03:17:23.289Z,96659.34
2019-05-20T03:19:51.666Z,96652.33
2019-05-20T03:22:20.025Z,96653.44
2019-05-20T03:24:48.424Z,96652.08
2019-05-20T03:27:16.717Z,96655.09
2019-05-20T03:29:45.033Z,96653.56
2019-05-20T03:32:13.622Z,96655.30
2019-05-20T03:34:48.364Z,96655.53
2019-05-20T03:37:12.645Z,96654.64
2019-05-20T03:39:41.042Z,96665.77
2019-05-20T03:42:09.521Z,96664.20
2019-05-20T03:44:37.990Z,96668.27
2019-05-20T03:47:06.292Z,96662.39
2019-05-20T03:49:34.609Z,96661.53
2019-05-20T03:52:02.925Z,96657.76
2019-05-20T03:54:31.624Z,96643.62
2019-05-20T03:56:59.952Z,96652.98
2019-05-20T03:59:28.251Z,96644.00
2019-05-20T04:01:56.569Z,96646.27
2019-05-20T04:04:25.458Z,96639.27
2019-05-20T04:06:54.159Z,96641.91
2019-05-20T04:09:22.455Z,96640.13
2019-05-20T04:11:50.880Z,96643.47
2019-05-20T04:14:19.247Z,96652.66
2019-05-20T04:16:49.308Z,96644.53
2019-05-20T04:19:17.744Z,96641.21
2019-05-20T04:21:46.214Z,96643.28
2019-05-20T04:24:14.689Z,96640.36
2019-05-20T04:26:43.355Z,96647.37
2019-05-20T04:29:11.760Z,96647.44
2019-05-20T04:31:40.236Z,96647.55
2019-05-20T04:34:08.599Z,96645.16
2019-05-20T04:36:37.025Z,96655.37
2019-05-20T04:39:06.951Z,96654.64
2019-05-20T04:41:35.933Z,96652.95
2019-05-20T04:44:04.443Z,96655.87
2019-05-20T04:46:33.170Z,96648.73
2019-05-20T04:49:01.863Z,96651.48
2019-05-20T04:51:30.252Z,96654.59
2019-05-20T04:53:58.552Z,96656.64
2019-05-20T04:56:29.127Z,96662.27
2019-05-20T04:58:56.885Z,96658.94
2019-05-20T05:01:25.330Z,96658.25
2019-05-20T05:03:54.076Z,96658.05
2019-05-20T05:06:22.369Z,96660.81
2019-05-20T05:08:50.686Z,96662.97
2019-05-20T05:11:19.255Z,96652.69
2019-05-20T05:13:47.654Z,96659.98
2019-05-20T05:16:16.017Z,96666.41
2019-05-20T05:18:44.414Z,96662.92
2019-05-20T05:21:13.282Z,96664.34
2019-05-20T05:23:41.615Z,96669.48
2019-05-20T05:26:10.353Z,96669.70
2019-05-20T05:28:38.654Z,96672.28
2019-05-20T05:31:07.430Z,96670.30
2019-05-20T05:33:35.713Z,96673.68
2019-05-20T05:36:04.183Z,96671.89
2019-05-20T05:38:32.556Z,96673.70
2019-05-20T05:41:00.873Z,96674.92
2019-05-20T05:43:29.180Z,96675.58
2019-05-20T05:45:57.812Z,96678.63
2019-05-20T05:48:26.411Z,96680.20
2019-05-20T05:50:54.747Z,96678.50
2019-05-20T05:53:23.388Z,96679.77
2019-05-20T05:55:51.685Z,96679.27
2019-05-20T05:58:20.071Z,96684.89
2019-05-20T06:00:48.440Z,96689.27
2019-05-20T06:03:16.838Z,96697.62
2019-05-20T06:05:45.143Z,96700.34
2019-05-20T06:08:13.490Z,96696.70
2019-05-20T06:10:42.241Z,96696.18
2019-05-20T06:13:10.626Z,96700.23
2019-05-20T06:15:38.921Z,96699.05
2019-05-20T06:18:07.368Z,96709.05
2019-05-20T06:20:35.704Z,96709.98
2019-05-20T06:23:04.063Z,96707.82
2019-05-20T06:25:32.742Z,96707.10
2019-05-20T06:28:01.031Z,96705.75
2019-05-20T06:30:43.741Z,96706.22
2019-05-20T06:33:12.172Z,96708.19
2019-05-20T06:35:40.908Z,96713.80
2019-05-20T06:38:13.639Z,96713.97
2019-05-20T06:40:41.975Z,96718.48
2019-05-20T06:43:10.325Z,96714.63
2019-05-20T06:45:38.695Z,96719.80
2019-05-20T06:48:07.087Z,96724.20
2019-05-20T06:50:35.936Z,96727.52
2019-05-20T06:53:04.298Z,96734.42
2019-05-20T06:55:32.656Z,96730.72
2019-05-20T06:58:00.954Z,96737.63
2019-05-20T07:00:34.937Z,96733.89
2019-05-20T07:03:03.756Z,96732.63
2019-05-20T07:05:32.224Z,96728.88
2019-05-20T07:08:01.389Z,96734.00
2019-05-20T07:10:30.050Z,96733.44
2019-05-20T07:12:58.422Z,96732.42
2019-05-20T07:15:26.748Z,96731.42
2019-05-20T07:17:55.051Z,96732.45
2019-05-20T07:20:23.396Z,96730.02
2019-05-20T07:22:55.843Z,96728.16
2019-05-20T07:25:22.179Z,96728.59
2019-05-20T07:27:50.739Z,96731.30
2019-05-20T07:30:19.682Z,96727.84
2019-05-20T07:32:48.047Z,96733.95
2019-05-20T07:35:29.808Z,96730.61
2019-05-20T07:37:46.644Z,96732.38
2019-05-20T07:40:18.395Z,96731.37
2019-05-20T07:42:46.780Z,96732.16
2019-05-20T07:45:15.468Z,96730.92
2019-05-20T07:47:44.253Z,96739.86
2019-05-20T07:50:13.000Z,96735.30
2019-05-20T07:52:41.687Z,96741.28
2019-05-20T07:55:10.783Z,96740.47
2019-05-20T07:57:40.922Z,96735.25
2019-05-20T08:00:10.438Z,96733.61
2019-05-20T08:02:39.151Z,96744.20
2019-05-20T08:05:08.185Z,96736.80
2019-05-20T08:07:51.191Z,96744.12
2019-05-20T08:10:07.843Z,96739.76
2019-05-20T08:12:36.151Z,96743.25
2019-05-20T08:15:08.502Z,96742.72
2019-05-20T08:17:36.873Z,96742.31
2019-05-20T08:20:07.079Z,96741.36
2019-05-20T08:22:35.734Z,96743.55
2019-05-20T08:25:06.438Z,96744.69
2019-05-20T08:27:34.756Z,96745.87
2019-05-20T08:30:04.495Z,96747.83
2019-05-20T08:32:32.825Z,96743.08
2019-05-20T08:35:01.137Z,96746.19
2019-05-20T08:37:44.318Z,96747.16
2019-05-20T08:39:59.582Z,96746.89
2019-05-20T08:42:27.917Z,96748.09
2019-05-20T08:44:56.271Z,96751.85
2019-05-20T08:47:24.972Z,96753.70
2019-05-20T08:49:53.501Z,96755.83
2019-05-20T08:52:22.185Z,96752.86
2019-05-20T08:54:50.502Z,96755.50
2019-05-20T08:57:18.810Z,96750.52
2019-05-20T08:59:47.225Z,96754.53
2019-05-20T09:02:15.520Z,96759.33
2019-05-20T09:04:43.868Z,96762.34
2019-05-20T09:07:12.152Z,96749.34
2019-05-20T09:09:40.590Z,96765.19
2019-05-20T09:12:09.528Z,96761.70
2019-05-20T09:14:40.549Z,96761.67
2019-05-20T09:17:07.877Z,96764.13
2019-05-20T09:19:36.287Z,96766.22
2019-05-20T09:22:04.980Z,96758.02
2019-05-20T09:24:33.593Z,96758.69
2019-05-20T09:27:02.007Z,96754.94
2019-05-20T09:29:30.345Z,96757.64
2019-05-20T09:31:58.721Z,96755.53
2019-05-20T09:34:27.039Z,96757.77
2019-05-20T09:36:55.369Z,96758.27
2019-05-20T09:39:23.931Z,96757.89
2019-05-20T09:41:52.664Z,96757.89
2019-05-20T09:44:21.116Z,96765.69
2019-05-20T09:46:49.716Z,96758.83
2019-05-20T09:49:18.532Z,96760.63
2019-05-20T09:51:46.862Z,96765.05
2019-05-20T09:54:15.178Z,96762.88
2019-05-20T09:56:43.564Z,96764.31
2019-05-20T09:59:11.866Z,96771.98
2019-05-20T10:01:40.542Z,96763.16
2019-05-20T10:04:08.981Z,96769.25
2019-05-20T10:06:37.323Z,96771.55
2019-05-20T10:09:06.768Z,96773.08
2019-05-20T10:11:35.139Z,96769.19
2019-05-20T10:14:03.454Z,96766.31
2019-05-20T10:16:31.746Z,96770.44
2019-05-20T10:19:00.152Z,96776.37
2019-05-20T10:21:28.520Z,96775.20
2019-05-20T10:23:56.849Z,96770.36
2019-05-20T10:26:25.150Z,96771.63
2019-05-20T10:28:53.476Z,96773.42
2019-05-20T10:31:21.868Z,96778.67
2019-05-20T10:33:50.168Z,96773.20
2019-05-20T10:36:18.504Z,96777.71
2019-05-20T10:38:57.928Z,96785.22
2019-05-20T10:41:17.509Z,96792.01
2019-05-20T10:43:45.815Z,96789.23
2019-05-20T10:46:14.267Z,96792.05
2019-05-20T10:48:42.629Z,96796.92
2019-05-20T10:51:11.040Z,96800.92
2019-05-20T10:53:39.320Z,96796.60
2019-05-20T10:56:07.661Z,96794.44
2019-05-20T10:58:35.953Z,96801.28
2019-05-20T11:01:04.756Z,96807.36
2019-05-20T11:03:33.153Z,96807.56
2019-05-20T11:06:01.451Z,96802.08
2019-05-20T11:08:29.766Z,96811.98
2019-05-20T11:10:58.132Z,96805.41
2019-05-20T11:13:26.526Z,96813.99
2019-05-20T11:15:54.925Z,96818.25
2019-05-20T11:18:23.236Z,96819.72
2019-05-20T11:20:51.542Z,96820.41
2019-05-20T11:23:19.872Z,96816.70
2019-05-20T11:25:48.479Z,96826.34
2019-05-20T11:28:16.863Z,96823.48
2019-05-20T11:30:45.246Z,96819.49
2019-05-20T11:33:13.634Z,96819.99
2019-05-20T11:35:42.024Z,96819.99
2019-05-20T11:38:10.426Z,96819.97
2019-05-20T11:40:38.723Z,96822.91
2019-05-20T11:43:07.080Z,96825.02
2019-05-20T11:45:36.258Z,96826.89
2019-05-20T11:48:04.925Z,96830.94
2019-05-20T11:50:33.622Z,96828.28
2019-05-20T11:53:02.329Z,96831.05
2019-05-20T11:55:30.742Z,96830.82
2019-05-20T11:58:14.642Z,96832.91
2019-05-20T12:00:29.133Z,96827.33
2019-05-20T12:02:57.531Z,96828.64
2019-05-20T12:05:25.869Z,96832.73
2019-05-20T12:07:54.167Z,96824.94
2019-05-20T12:10:22.733Z,96827.45
2019-05-20T12:12:51.119Z,96830.48
2019-05-20T12:15:19.680Z,96829.53
2019-05-20T12:17:48.002Z,96831.72
2019-05-20T12:20:16.738Z,96832.03
2019-05-20T12:22:45.137Z,96827.70
2019-05-20T12:25:13.868Z,96830.98
2019-05-20T12:27:42.164Z,96830.19
2019-05-20T12:30:11.178Z,96830.63
2019-05-20T12:32:39.479Z,96835.49
2019-05-20T12:35:08.626Z,96833.10
2019-05-20T12:37:36.946Z,96831.48
2019-05-20T12:40:08.315Z,96837.28
2019-05-20T12:42:37.951Z,96832.25
2019-05-20T12:45:08.112Z,96836.05
2019-05-20T12:47:36.484Z,96841.05
2019-05-20T12:50:06.234Z,96835.11
2019-05-20T12:52:34.565Z,96833.30
2019-05-20T12:55:09.163Z,96827.02
2019-05-20T12:57:33.007Z,96832.09
2019-05-20T13:00:01.431Z,96828.20
2019-05-20T13:02:29.710Z,96831.74
2019-05-20T13:04:58.006Z,96830.22
2019-05-20T13:07:26.534Z,96826.72
2019-05-20T13:09:54.852Z,96831.61
2019-05-20T13:12:23.173Z,96825.98
2019-05-20T13:14:51.843Z,96825.79
2019-05-20T13:17:20.298Z,96825.25
2019-05-20T13:19:48.667Z,96828.13
2019-05-20T13:22:17.036Z,96828.81
2019-05-20T13:24:45.365Z,96824.31
2019-05-20T13:27:14.033Z,96825.45
2019-05-20T13:29:42.332Z,96829.17
2019-05-20T13:32:10.638Z,96835.36
2019-05-20T13:34:38.952Z,96833.25
2019-05-20T13:37:07.328Z,96831.41
2019-05-20T13:39:37.360Z,96838.19
2019-05-20T13:42:05.799Z,96837.70
2019-05-20T13:44:34.606Z,96833.39
2019-05-20T13:47:02.969Z,96833.52
2019-05-20T13:49:31.337Z,96835.92
2019-05-20T13:51:59.793Z,96837.99
2019-05-20T13:54:28.160Z,96844.41
2019-05-20T13:56:56.855Z,96847.50
2019-05-20T13:59:25.231Z,96841.28
2019-05-20T14:01:53.930Z,96843.12
2019-05-20T14:04:22.734Z,96837.23
2019-05-20T14:06:51.130Z,96840.84
2019-05-20T14:09:19.412Z,96843.27
2019-05-20T14:11:48.171Z,96850.81
2019-05-20T14:14:17.064Z,96842.25
2019-05-20T14:16:45.439Z,96838.77
2019-05-20T14:19:13.749Z,96841.30
2019-05-20T14:21:42.046Z,96837.59
2019-05-20T14:24:11.266Z,96837.91
2019-05-20T14:26:39.844Z,96836.37
2019-05-20T14:29:08.297Z,96830.15
2019-05-20T14:31:36.596Z,96829.22
2019-05-20T14:34:04.987Z,96834.09
2019-05-20T14:36:39.795Z,96832.87
2019-05-20T14:39:05.704Z,96837.11
2019-05-20T14:41:34.004Z,96838.61
2019-05-20T14:44:02.385Z,96834.63
2019-05-20T14:46:30.703Z,96834.03
2019-05-20T14:49:02.471Z,96834.61
2019-05-20T14:51:29.202Z,96836.84
2019-05-20T14:53:57.606Z,96832.77
2019-05-20T14:56:25.912Z,96831.13
2019-05-20T14:58:55.348Z,96835.97
2019-05-20T15:01:24.299Z,96831.28
2019-05-20T15:03:52.619Z,96831.20
2019-05-20T15:06:20.911Z,96833.73
2019-05-20T15:08:49.236Z,96837.95
2019-05-20T15:11:17.615Z,96835.77
2019-05-20T15:13:45.948Z,96836.84
2019-05-20T15:16:14.261Z,96841.77
2019-05-20T15:18:42.580Z,96836.71
2019-05-20T15:21:10.898Z,96837.54
2019-05-20T15:23:39.232Z,96835.16
2019-05-20T15:26:07.598Z,96837.52
2019-05-20T15:28:35.907Z,96841.19
2019-05-20T15:31:04.229Z,96845.66
2019-05-20T15:33:32.611Z,96842.89
2019-05-20T15:36:00.995Z,96847.41
2019-05-20T15:38:29.295Z,96837.98
2019-05-20T15:40:58.005Z,96837.30
2019-05-20T15:43:26.594Z,96838.02
2019-05-20T15:45:54.990Z,96842.95
2019-05-20T15:48:23.280Z,96841.23
2019-05-20T15:50:51.756Z,96839.97
2019-05-20T15:53:20.147Z,96844.59
2019-05-20T15:55:48.854Z,96846.14
2019-05-20T15:58:17.200Z,96847.84
2019-05-20T16:00:45.485Z,96840.38
2019-05-20T16:03:13.796Z,96844.13
2019-05-20T16:05:42.093Z,96844.89
2019-05-20T16:08:10.722Z,96838.31
2019-05-20T16:10:39.156Z,96839.86
2019-05-20T16:13:07.507Z,96838.56
2019-05-20T16:15:35.815Z,96843.22
2019-05-20T16:18:04.248Z,96835.09
2019-05-20T16:20:32.881Z,96833.16
2019-05-20T16:23:01.196Z,96828.84
2019-05-20T16:25:29.927Z,96830.76
2019-05-20T16:27:58.304Z,96820.44
2019-05-20T16:30:27.078Z,96829.70
2019-05-20T16:32:55.520Z,96834.62
2019-05-20T16:35:23.824Z,96836.02
2019-05-20T16:37:52.165Z,96837.96
2019-05-20T16:40:20.621Z,96835.44
2019-05-20T16:42:48.981Z,96838.50
2019-05-20T16:45:17.617Z,96840.30
2019-05-20T16:47:45.932Z,96837.28
2019-05-20T16:50:15.380Z,96833.81
2019-05-20T16:52:44.054Z,96836.19
2019-05-20T16:55:12.527Z,96853.42
2019-05-20T16:57:40.931Z,96844.48
2019-05-20T17:00:29.284Z,96847.09
2019-05-20T17:02:39.655Z,96853.22
2019-05-20T17:05:07.990Z,96850.15
2019-05-20T17:07:36.376Z,96846.59
2019-05-20T17:10:08.873Z,96845.73
2019-05-20T17:12:37.591Z,96852.75
2019-05-20T17:15:06.670Z,96846.41
2019-05-20T17:17:34.968Z,96848.07
2019-05-20T17:20:03.401Z,96844.19
2019-05-20T17:22:31.704Z,96846.63
2019-05-20T17:25:00.056Z,96848.07
2019-05-20T17:27:28.354Z,96847.10
2019-05-20T17:29:56.726Z,96851.16
2019-05-20T17:32:25.118Z,96841.34
2019-05-20T17:34:53.507Z,96841.56
2019-05-20T17:37:21.844Z,96844.27
2019-05-20T17:39:50.196Z,96844.41
2019-05-20T17:42:18.578Z,96843.25
2019-05-20T17:44:46.878Z,96839.71
2019-05-20T17:47:15.211Z,96848.95
2019-05-20T17:49:43.580Z,96846.10
2019-05-20T17:52:12.387Z,96853.04
2019-05-20T17:54:40.679Z,96854.75
2019-05-20T17:57:08.992Z,96861.39
2019-05-20T17:59:37.293Z,96863.10
2019-05-20T18:02:07.335Z,96849.69
2019-05-20T18:04:35.923Z,96865.75
2019-05-20T18:07:04.341Z,96866.13
2019-05-20T18:09:34.352Z,96865.22
2019-05-20T18:12:02.670Z,96861.06
2019-05-20T18:14:31.085Z,96870.24
2019-05-20T18:16:59.647Z,96864.77
2019-05-20T18:19:28.034Z,96872.69
2019-05-20T18:21:56.398Z,96877.06
2019-05-20T18:24:24.723Z,96873.86
2019-05-20T18:26:53.223Z,96888.89
2019-05-20T18:29:21.609Z,96884.17
2019-05-20T18:31:49.994Z,96879.55
2019-05-20T18:34:18.376Z,96880.36
2019-05-20T18:36:46.660Z,96881.63
2019-05-20T18:39:15.067Z,96887.84
2019-05-20T18:41:43.932Z,96887.94
2019-05-20T18:44:13.373Z,96881.69
2019-05-20T18:46:42.017Z,96884.47
2019-05-20T18:49:10.397Z,96886.06
2019-05-20T18:51:38.725Z,96891.17
2019-05-20T18:54:07.052Z,96889.50
2019-05-20T18:56:35.455Z,96891.53
2019-05-20T18:59:04.063Z,96886.56
2019-05-20T19:01:46.080Z,96894.80
2019-05-20T19:04:02.783Z,96890.55
2019-05-20T19:06:31.418Z,96897.73
2019-05-20T19:08:59.743Z,96902.72
2019-05-20T19:11:28.061Z,96905.72
2019-05-20T19:13:56.870Z,96898.71
2019-05-20T19:16:25.199Z,96911.56
2019-05-20T19:18:53.651Z,96908.88
2019-05-20T19:21:22.259Z,96917.39
2019-05-20T19:23:50.724Z,96921.20
2019-05-20T19:26:24.856Z,96923.56
2019-05-20T19:28:49.282Z,96928.20
2019-05-20T19:31:17.756Z,96930.69
2019-05-20T19:33:46.383Z,96928.94
2019-05-20T19:36:14.805Z,96929.19
2019-05-20T19:38:43.322Z,96918.44
2019-05-20T19:41:12.018Z,96918.44
2019-05-20T19:43:40.525Z,96925.41
2019-05-20T19:46:08.898Z,96922.37
2019-05-20T19:48:37.192Z,96924.47
2019-05-20T19:51:05.585Z,96927.05
2019-05-20T19:53:34.297Z,96923.94
2019-05-20T19:56:02.760Z,96917.64
2019-05-20T19:58:31.518Z,96917.64
2019-05-20T20:00:59.820Z,96920.02
2019-05-20T20:03:28.194Z,96915.61
2019-05-20T20:05:56.464Z,96914.90
2019-05-20T20:08:26.000Z,96916.71
2019-05-20T20:10:54.341Z,96913.63
2019-05-20T20:13:22.754Z,96909.48
2019-05-20T20:15:51.055Z,96912.98
2019-05-20T20:18:19.423Z,96908.03
2019-05-20T20:20:48.196Z,96904.14
2019-05-20T20:23:16.500Z,96911.56
2019-05-20T20:25:44.833Z,96904.98
2019-05-20T20:28:13.140Z,96907.16
2019-05-20T20:30:41.535Z,96913.43
2019-05-20T20:33:09.836Z,96906.55
2019-05-20T20:35:38.580Z,96911.98
2019-05-20T20:38:07.154Z,96910.48
2019-05-20T20:40:35.643Z,96909.62
2019-05-20T20:43:04.849Z,96907.45
2019-05-20T20:45:33.211Z,96903.98
2019-05-20T20:48:01.533Z,96898.06
2019-05-20T20:50:29.832Z,96883.96
2019-05-20T20:52:58.160Z,96883.96
2019-05-20T20:55:26.482Z,96892.45
2019-05-20T20:57:54.842Z,96902.20
2019-05-20T21:00:23.222Z,96899.18
2019-05-20T21:02:53.575Z,96902.77
2019-05-20T21:05:21.728Z,96903.11
2019-05-20T21:07:51.792Z,96898.63
2019-05-20T21:10:20.435Z,96895.45
2019-05-20T21:12:48.728Z,96900.83
2019-05-20T21:15:17.514Z,96900.95
2019-05-20T21:17:45.877Z,96903.41
2019-05-20T21:20:14.286Z,96908.19
2019-05-20T21:22:42.587Z,96910.00
2019-05-20T21:25:11.050Z,96917.99
2019-05-20T21:27:39.376Z,96908.46
2019-05-20T21:30:09.583Z,96913.22
2019-05-20T21:32:38.246Z,96913.80
2019-05-20T21:35:06.721Z,96914.52
2019-05-20T21:37:35.041Z,96919.94
2019-05-20T21:40:03.979Z,96922.75
2019-05-20T21:42:32.667Z,96922.75
2019-05-20T21:45:01.057Z,96924.39
2019-05-20T21:47:29.434Z,96920.34
2019-05-20T21:49:57.762Z,96919.96
2019-05-20T21:52:26.130Z,96927.30
2019-05-20T21:54:54.782Z,96920.31
2019-05-20T21:57:23.270Z,96932.20
2019-05-20T21:59:51.587Z,96926.02
2019-05-20T22:02:20.332Z,96928.92
2019-05-20T22:04:49.030Z,96931.27
2019-05-20T22:07:17.408Z,96936.00
2019-05-20T22:09:46.045Z,96927.23
2019-05-20T22:12:14.342Z,96934.92
2019-05-20T22:14:42.682Z,96932.11
2019-05-20T22:17:10.989Z,96926.80
2019-05-20T22:19:39.294Z,96924.59
2019-05-20T22:22:25.090Z,96931.16
2019-05-20T22:24:55.497Z,96935.78
2019-05-20T22:27:23.512Z,96929.80
2019-05-20T22:29:51.814Z,96937.13
2019-05-20T22:32:20.567Z,96941.27
2019-05-20T22:34:53.707Z,96932.42
2019-05-20T22:37:18.905Z,96924.91
2019-05-20T22:39:47.209Z,96928.17
2019-05-20T22:42:15.543Z,96938.61
2019-05-20T22:44:44.034Z,96937.85
2019-05-20T22:47:12.339Z,96937.17
2019-05-20T22:49:40.654Z,96924.51
2019-05-20T22:52:09.023Z,96930.30
2019-05-20T22:54:37.347Z,96929.66
2019-05-20T22:57:06.041Z,96932.20
2019-05-20T22:59:34.365Z,96923.77
2019-05-20T23:02:02.661Z,96920.50
2019-05-20T23:04:31.043Z,96925.91
2019-05-20T23:06:59.340Z,96926.52
2019-05-20T23:09:27.666Z,96924.89
2019-05-20T23:11:55.966Z,96918.33
2019-05-20T23:14:25.528Z,96918.48
2019-05-20T23:16:53.914Z,96916.48
2019-05-20T23:19:22.478Z,96911.84
2019-05-20T23:21:50.799Z,96911.84
2019-05-20T23:24:19.095Z,96913.23
2019-05-20T23:26:47.411Z,96922.27
2019-05-20T23:29:16.022Z,96926.16
2019-05-20T23:31:44.343Z,96922.42
2019-05-20T23:34:13.425Z,96928.73
2019-05-20T23:36:42.406Z,96927.58
2019-05-20T23:39:10.777Z,96931.33
2019-05-20T23:41:39.082Z,96920.80
2019-05-20T23:44:07.694Z,96921.88
2019-05-20T23:46:35.989Z,96921.02
2019-05-20T23:49:04.379Z,96919.50
2019-05-20T23:51:32.685Z,96918.77
2019-05-20T23:54:00.998Z,96919.02
2019-05-20T23:56:29.651Z,96916.20
2019-05-20T23:58:59.263Z,96914.13
